Startpagina
METAR-TAF:

METAR-TAF

Vliegvelden :

Ankara Esenboğa, Turkije

Luchthaven Ankara Esenboga

breedte: 40-07N, lengte: 032-59E, hoogte: 953 m

Actueel weer

Dit bericht is 26 minuten geleden gemaakt, om 20:50 UTC
Wind 4 kt uit het zuiden
Temperatuur 2°C
Vochtigheid 93%
Druk 1014 hPa
Zicht: 8000 m
Verspreide wolken op 900 ft
Gebroken wolken op 2500 ft

METAR: LTAC 162050Z 18004KT 8000 SCT009 BKN025 02/01 Q1014 NOSIG RMK RWY21L 20007KT RWY03L 16003KT RWY21R 20007KT

Tijdstip: 00:16 (21:16 UTC)

Verwachting

Dit bericht is 21 minuten geleden gemaakt, om 20:55 UTC
Verwachting geldig van 16 om 20 UTC tot 17 om 18 UTC
Wind 2 kt uit variabele richting
Zicht: 8000 m
Verspreide wolken op 800 ft
Gebroken wolken op 2500 ft
Tijdelijke
van 17 om 02 UTC tot 17 om 06 UTC
Zicht: 4000 m
nevel
Wijzigt naar
van 17 om 06 UTC tot 17 om 09 UTC
Verspreide wolken op 3500 ft
Gebroken wolken op 8000 ft

TAF: LTAC 162055Z 1620/1718 VRB02KT 8000 SCT008 BKN025 TEMPO 1702/1706 4000 BR BECMG 1706/1709 SCT035 BKN080

Waarnemingen en weersverwachtingen van meer dan 4000 vliegvelden (METAR en TAF).

De beschikbare stations zijn de gele en rode punten op de kaart.

Ga met uw muis naar het station om de naam te zien.

Klik dan om waarnemingen en weersverwachtingen te zien.

kaart wijzigen: klik op de groene knoppen met een zwart kruis om in te zoomen, op de groene knop met een streepje om uit te zoomen of op de groene pijlen voor aangrenzende kaarten.


METAR-TAF: